Newark, NJ

02:56 EST dnia 08-grudzień-2016 (GMT -0500)
Central Business District | | Change Station

Wysokość 62 ft 40.74 °N, 74.17 °W | Updated 1 minute ago

przewaga chmur
przewaga chmur
32.0 ° F
Odczuwalna 32 ° F
Płn.
0.6
Wiatr zmienny Wiatr od południowy
Gusts 1.2 mph

Dziś
Wysoka -- | Niska -- ° F
--% Prawdop. opadów
Wczoraj
Wysoka -- | Niska -- ° F
Precip. -- cali
Ciśnienie 30.01 cali
Widzialność 10.0 mil
chmury Niewiele 14000 ft
przewaga chmur 25000 ft
czynnik chłodzący wiatru 32 ° F
Punkt rosy 31 ° F
Wilgotność 95%
Opady deszczu 0.00 cali
grubość pokrywy śnieżnej Niedostępne.
7:08 AM 4:29 PM
Pierwsza kwadra, 61% visible
METAR KEWR 080751Z 25005KT 10SM FEW140 BKN250 03/01 A3001 RMK AO2 SLP160 T00330006
Ciśnienie 30.01 cali
Widzialność 10.0 mil
chmury Niewiele 14000 ft
przewaga chmur 25000 ft
czynnik chłodzący wiatru 32 ° F
Punkt rosy 31 ° F
Wilgotność 95%
Opady deszczu 0.00 cali
grubość pokrywy śnieżnej Niedostępne.
7:08 AM 4:29 PM
Pierwsza kwadra, 61% visible
METAR KEWR 080751Z 25005KT 10SM FEW140 BKN250 03/01 A3001 RMK AO2 SLP160 T00330006

10-Day Weather Forecast

Almanac

Astronomia

Dec. 08, 2016 Wschód Zachów
Aktualny czas
Zmierzch cywilny
Zmierzch żeglarski
świt/zmierzch astronomiczny
Księżyc
całkowite oświetlenie
Długość dnia
Tomorrow will be .
, % of the Moon is Illuminated

Dzisiejsze ekstrema

State Highs State Lows

Community

WunderPhotos

Upload Photos

1,956,259 zdjęcia zostały przesłane!

WunderBlog® & News

Nearby

Jakość powietrza

  Jakość powietrza czynnik AQ Zanieczyszczenie
Not available.

Głębokość pokrywy śnieżnej

Station Depth n.p.m.

Aktywność sejsmiczna

Miejscowość Distance Mag. Time & Date
Minimum magnitude displayed is 2.5.

Temperatury wody na wybrzeżu

Miejsce Temperatura

Stations

Najbliższa stacja pogodowa

Lokalizacja stacji Temp. czynnik chłodzący wiatru Punkt rosy Wilgotność Wiatr Precip. Wysokość Uaktualniono Typ
                   

Watches & Warnings

There are currently no watches in effect.